createdAt,value
2023-04-16T00:01:20.646Z,98910.16
2023-04-16T00:03:48.330Z,98908.94
2023-04-16T00:06:15.756Z,98909.38
2023-04-16T00:08:43.693Z,98908.88
2023-04-16T00:11:11.635Z,98909.16
2023-04-16T00:13:38.747Z,98902.94
2023-04-16T00:16:06.226Z,98907.84
2023-04-16T00:18:33.677Z,98900.97
2023-04-16T00:21:00.963Z,98898.78
2023-04-16T00:23:28.089Z,98903.78
2023-04-16T00:25:57.232Z,98901.72
2023-04-16T00:28:24.445Z,98903.00
2023-04-16T00:30:51.633Z,98904.16
2023-04-16T00:33:19.083Z,98906.53
2023-04-16T00:35:47.172Z,98908.84
2023-04-16T00:38:15.854Z,98902.47
2023-04-16T00:40:43.265Z,98902.59
2023-04-16T00:43:10.524Z,98915.44
2023-04-16T00:45:38.617Z,98912.25
2023-04-16T00:48:06.160Z,98907.78
2023-04-16T00:50:33.884Z,98906.06
2023-04-16T00:53:01.790Z,98903.69
2023-04-16T00:55:29.572Z,98903.25
2023-04-16T00:57:56.725Z,98911.78
2023-04-16T01:00:23.949Z,98911.00
2023-04-16T01:02:51.507Z,98907.41
2023-04-16T01:05:19.374Z,98912.91
2023-04-16T01:07:46.510Z,98917.28
2023-04-16T01:10:13.936Z,98923.56
2023-04-16T01:12:41.105Z,98916.69
2023-04-16T01:15:08.809Z,98918.59
2023-04-16T01:17:36.256Z,98915.75
2023-04-16T01:20:03.842Z,98920.88
2023-04-16T01:22:30.930Z,98909.22
2023-04-16T01:24:58.317Z,98914.06
2023-04-16T01:27:25.373Z,98916.28
2023-04-16T01:29:52.689Z,98915.97
2023-04-16T01:32:20.702Z,98915.38
2023-04-16T01:34:48.001Z,98919.37
2023-04-16T01:37:20.841Z,98920.03
2023-04-16T01:39:48.419Z,98912.50
2023-04-16T01:42:15.672Z,98915.78
2023-04-16T01:44:43.507Z,98915.31
2023-04-16T01:47:10.872Z,98916.75
2023-04-16T01:49:38.277Z,98911.09
2023-04-16T01:52:05.417Z,98916.44
2023-04-16T01:54:32.845Z,98919.91
2023-04-16T01:56:59.837Z,98914.78
2023-04-16T01:59:26.993Z,98920.56
2023-04-16T02:01:54.551Z,98912.75
2023-04-16T02:04:22.781Z,98920.03
2023-04-16T02:06:50.285Z,98924.34
2023-04-16T02:09:17.758Z,98922.59
2023-04-16T02:11:45.147Z,98913.88
2023-04-16T02:14:12.251Z,98936.00
2023-04-16T02:16:39.443Z,98935.28
2023-04-16T02:19:07.358Z,98934.09
2023-04-16T02:21:35.612Z,98940.41
2023-04-16T02:24:03.281Z,98941.69
2023-04-16T02:26:30.688Z,98950.97
2023-04-16T02:28:58.691Z,98950.19
2023-04-16T02:31:28.528Z,98939.56
2023-04-16T02:33:56.231Z,98941.22
2023-04-16T02:36:23.869Z,98944.63
2023-04-16T02:38:51.075Z,98948.13
2023-04-16T02:41:18.224Z,98942.00
2023-04-16T02:43:45.625Z,98941.13
2023-04-16T02:46:12.765Z,98935.22
2023-04-16T02:48:40.120Z,98943.88
2023-04-16T02:51:07.771Z,98943.88
2023-04-16T02:53:35.032Z,98952.47
2023-04-16T02:56:02.474Z,98949.09
2023-04-16T02:58:29.886Z,98951.63
2023-04-16T03:00:57.110Z,98944.56
2023-04-16T03:03:24.327Z,98944.59
2023-04-16T03:05:51.967Z,98954.50
2023-04-16T03:08:19.102Z,98950.78
2023-04-16T03:10:46.354Z,98951.63
2023-04-16T03:13:14.610Z,98941.84
2023-04-16T03:15:41.757Z,98951.50
2023-04-16T03:18:08.912Z,98943.88
2023-04-16T03:20:36.380Z,98948.03
2023-04-16T03:23:03.531Z,98951.19
2023-04-16T03:25:30.596Z,98951.16
2023-04-16T03:27:58.083Z,98957.16
2023-04-16T03:30:25.363Z,98965.22
2023-04-16T03:32:52.564Z,98962.69
2023-04-16T03:35:21.125Z,98977.59
2023-04-16T03:37:50.185Z,98975.72
2023-04-16T03:40:17.964Z,98983.56
2023-04-16T03:42:45.421Z,98975.50
2023-04-16T03:45:12.553Z,98986.78
2023-04-16T03:47:39.878Z,98985.94
2023-04-16T03:50:08.018Z,98988.00
2023-04-16T03:52:36.319Z,99001.91
2023-04-16T03:55:04.103Z,99008.19
2023-04-16T03:57:31.683Z,99002.75
2023-04-16T04:00:00.509Z,98995.97
2023-04-16T04:02:28.046Z,98998.94
2023-04-16T04:04:55.736Z,99002.03
2023-04-16T04:07:23.536Z,99003.72
2023-04-16T04:09:52.214Z,98993.09
2023-04-16T04:12:19.651Z,98996.22
2023-04-16T04:14:47.345Z,98995.16
2023-04-16T04:17:14.530Z,98995.84
2023-04-16T04:19:47.112Z,98998.84
2023-04-16T04:22:18.642Z,99006.56
2023-04-16T04:24:46.063Z,99011.78
2023-04-16T04:27:13.899Z,99020.28
2023-04-16T04:29:40.975Z,99018.59
2023-04-16T04:32:08.437Z,99025.66
2023-04-16T04:34:35.739Z,99028.16
2023-04-16T04:37:03.466Z,99029.78
2023-04-16T04:39:31.052Z,99030.50
2023-04-16T04:41:58.392Z,99026.78
2023-04-16T04:44:25.478Z,99026.69
2023-04-16T04:46:52.993Z,99027.44
2023-04-16T04:49:20.273Z,99028.88
2023-04-16T04:51:48.200Z,99024.97
2023-04-16T04:54:15.759Z,99029.22
2023-04-16T04:56:45.814Z,99030.16
2023-04-16T04:59:14.151Z,99030.72
2023-04-16T05:01:41.989Z,99037.53
2023-04-16T05:04:09.209Z,99036.69
2023-04-16T05:06:36.438Z,99030.94
2023-04-16T05:09:03.968Z,99028.47
2023-04-16T05:11:31.148Z,99030.75
2023-04-16T05:13:58.241Z,99037.00
2023-04-16T05:16:25.672Z,99037.56
2023-04-16T05:18:52.859Z,99039.41
2023-04-16T05:21:20.147Z,99043.66
2023-04-16T05:23:47.757Z,99048.91
2023-04-16T05:26:14.928Z,99056.44
2023-04-16T05:28:42.046Z,99051.00
2023-04-16T05:31:09.403Z,99046.91
2023-04-16T05:33:36.447Z,99053.53
2023-04-16T05:36:03.730Z,99045.97
2023-04-16T05:38:31.087Z,99057.13
2023-04-16T05:40:58.657Z,99051.50
2023-04-16T05:43:25.735Z,99054.00
2023-04-16T05:45:53.081Z,99049.44
2023-04-16T05:48:20.252Z,99055.37
2023-04-16T05:50:47.295Z,99050.28
2023-04-16T05:53:14.623Z,99057.97
2023-04-16T05:55:41.636Z,99054.16
2023-04-16T05:58:08.698Z,99064.37
2023-04-16T06:00:36.211Z,99059.62
2023-04-16T06:03:04.144Z,99060.16
2023-04-16T06:05:31.470Z,99064.19
2023-04-16T06:07:58.553Z,99058.53
2023-04-16T06:10:26.154Z,99069.22
2023-04-16T06:12:53.390Z,99074.31
2023-04-16T06:15:20.386Z,99070.47
2023-04-16T06:17:47.731Z,99070.09
2023-04-16T06:20:14.812Z,99072.16
2023-04-16T06:22:41.940Z,99073.28
2023-04-16T06:25:09.664Z,99072.59
2023-04-16T06:27:37.176Z,99068.59
2023-04-16T06:30:04.750Z,99075.25
2023-04-16T06:32:32.141Z,99077.72
2023-04-16T06:34:59.306Z,99068.19
2023-04-16T06:37:26.333Z,99066.81
2023-04-16T06:39:53.626Z,99072.50
2023-04-16T06:42:20.823Z,99065.97
2023-04-16T06:44:47.936Z,99070.66
2023-04-16T06:47:16.202Z,99068.50
2023-04-16T06:49:43.331Z,99067.56
2023-04-16T06:52:10.724Z,99076.13
2023-04-16T06:54:38.516Z,99072.44
2023-04-16T06:57:05.598Z,99070.63
2023-04-16T06:59:32.630Z,99068.53
2023-04-16T07:02:00.138Z,99074.25
2023-04-16T07:04:27.428Z,99066.13
2023-04-16T07:06:54.605Z,99073.94
2023-04-16T07:09:21.941Z,99067.38
2023-04-16T07:11:49.031Z,99070.31
2023-04-16T07:14:16.106Z,99071.87
2023-04-16T07:16:43.476Z,99072.97
2023-04-16T07:19:10.995Z,99075.59
2023-04-16T07:21:38.195Z,99069.38
2023-04-16T07:24:05.742Z,99082.22
2023-04-16T07:26:32.786Z,99076.16
2023-04-16T07:28:59.855Z,99078.00
2023-04-16T07:31:27.353Z,99071.16
2023-04-16T07:33:54.497Z,99076.38
2023-04-16T07:36:21.545Z,99073.44
2023-04-16T07:38:48.887Z,99074.47
2023-04-16T07:41:16.060Z,99078.63
2023-04-16T07:43:43.070Z,99068.22
2023-04-16T07:46:10.389Z,99070.28
2023-04-16T07:48:37.404Z,99070.97
2023-04-16T07:51:04.519Z,99075.53
2023-04-16T07:53:31.942Z,99071.84
2023-04-16T07:55:59.034Z,99077.53
2023-04-16T07:58:26.122Z,99081.28
2023-04-16T08:00:53.701Z,99078.16
2023-04-16T08:03:21.401Z,99077.63
2023-04-16T08:05:48.692Z,99089.06
2023-04-16T08:08:16.068Z,99080.78
2023-04-16T08:10:43.507Z,99083.66
2023-04-16T08:13:10.733Z,99079.91
2023-04-16T08:15:37.866Z,99085.56
2023-04-16T08:18:12.861Z,99093.19
2023-04-16T08:20:40.192Z,99086.91
2023-04-16T08:23:07.744Z,99083.41
2023-04-16T08:25:35.768Z,99067.91
2023-04-16T08:28:02.977Z,99088.22
2023-04-16T08:30:30.696Z,99091.09
2023-04-16T08:32:57.934Z,99096.59
2023-04-16T08:35:25.276Z,99095.00
2023-04-16T08:37:53.772Z,99102.91
2023-04-16T08:40:21.280Z,99107.38
2023-04-16T08:42:58.299Z,99100.56
2023-04-16T08:45:27.269Z,99105.09
2023-04-16T08:50:26.626Z,99102.69
2023-04-16T08:53:04.433Z,99109.81
2023-04-16T08:55:40.264Z,99108.22
2023-04-16T08:58:29.659Z,99117.41
2023-04-16T09:00:56.881Z,99121.53
2023-04-16T09:03:24.520Z,99124.00
2023-04-16T09:05:52.268Z,99123.53
2023-04-16T09:08:20.283Z,99122.66
2023-04-16T09:10:49.034Z,99127.50
2023-04-16T09:13:20.312Z,99131.22
2023-04-16T09:15:47.900Z,99134.63
2023-04-16T09:18:14.942Z,99142.28
2023-04-16T09:20:42.059Z,99134.06
2023-04-16T09:23:11.045Z,99142.88
2023-04-16T09:25:38.653Z,99140.34
2023-04-16T09:28:05.809Z,99141.78
2023-04-16T09:30:34.569Z,99144.72
2023-04-16T09:33:24.439Z,99145.53
2023-04-16T09:35:53.144Z,99142.41
2023-04-16T09:38:21.188Z,99152.69
2023-04-16T09:40:48.613Z,99141.66
2023-04-16T09:43:18.292Z,99146.47
2023-04-16T09:45:53.250Z,99149.63
2023-04-16T09:48:31.574Z,99148.56
2023-04-16T09:51:02.098Z,99141.91
2023-04-16T09:53:31.381Z,99151.84
2023-04-16T09:56:03.620Z,99145.03
2023-04-16T09:58:31.591Z,99141.44
2023-04-16T10:01:03.425Z,99148.81
2023-04-16T10:03:32.309Z,99147.59
2023-04-16T10:06:19.272Z,99145.06
2023-04-16T10:08:49.963Z,99138.88
2023-04-16T10:11:18.854Z,99142.38
2023-04-16T10:13:46.576Z,99143.50
2023-04-16T10:16:14.154Z,99130.53
2023-04-16T10:18:43.211Z,99132.47
2023-04-16T10:21:12.720Z,99140.09
2023-04-16T10:23:40.391Z,99134.66
2023-04-16T10:26:07.920Z,99126.78
2023-04-16T10:28:35.771Z,99120.09
2023-04-16T10:31:07.008Z,99127.28
2023-04-16T10:33:40.832Z,99123.28
2023-04-16T10:36:15.865Z,99121.34
2023-04-16T10:38:47.860Z,99118.50
2023-04-16T10:41:15.945Z,99117.91
2023-04-16T10:43:47.732Z,99114.19
2023-04-16T10:46:30.841Z,99116.56
2023-04-16T10:49:01.961Z,99109.69
2023-04-16T10:51:36.543Z,99123.38
2023-04-16T10:54:20.398Z,99103.84
2023-04-16T10:56:47.976Z,99106.84
2023-04-16T10:59:19.894Z,99104.56
2023-04-16T11:01:52.875Z,99101.16
2023-04-16T11:04:20.081Z,99099.41
2023-04-16T11:07:06.238Z,99102.97
2023-04-16T11:09:42.231Z,99094.59
2023-04-16T11:12:13.060Z,99094.81
2023-04-16T11:14:46.958Z,99098.66
2023-04-16T11:17:14.501Z,99103.44
2023-04-16T11:19:42.863Z,99103.81
2023-04-16T11:22:13.962Z,99094.59
2023-04-16T11:24:41.346Z,99099.22
2023-04-16T11:27:08.736Z,99101.09
2023-04-16T11:29:36.039Z,99096.69
2023-04-16T11:32:03.549Z,99094.09
2023-04-16T11:34:30.997Z,99102.50
2023-04-16T11:36:58.387Z,99097.62
2023-04-16T11:39:25.923Z,99091.28
2023-04-16T11:41:53.113Z,99095.41
2023-04-16T11:44:25.389Z,99089.41
2023-04-16T11:46:54.178Z,99098.12
2023-04-16T11:49:30.788Z,99087.19
2023-04-16T11:51:59.026Z,99091.91
2023-04-16T11:54:26.117Z,99088.22
2023-04-16T11:56:53.707Z,99089.84
2023-04-16T11:59:23.278Z,99085.59
2023-04-16T12:01:52.387Z,99088.63
2023-04-16T12:04:22.501Z,99077.59
2023-04-16T12:07:15.970Z,99085.19
2023-04-16T12:09:44.052Z,99085.22
2023-04-16T12:12:31.873Z,99082.91
2023-04-16T12:15:03.579Z,99076.91
2023-04-16T12:17:35.412Z,99082.41
2023-04-16T12:20:08.395Z,99079.50
2023-04-16T12:22:37.751Z,99079.22
2023-04-16T12:25:12.032Z,99079.31
2023-04-16T12:27:53.983Z,99077.22
2023-04-16T12:30:23.330Z,99080.22
2023-04-16T12:32:52.480Z,99074.72
2023-04-16T12:35:33.983Z,99071.91
2023-04-16T12:38:01.591Z,99077.75
2023-04-16T12:40:28.794Z,99085.75
2023-04-16T12:42:56.025Z,99090.94
2023-04-16T12:45:24.438Z,99083.28
2023-04-16T12:47:51.742Z,99079.41
2023-04-16T12:50:18.978Z,99079.63
2023-04-16T12:52:46.448Z,99067.75
2023-04-16T12:55:14.329Z,99069.31
2023-04-16T12:57:41.427Z,99060.38
2023-04-16T13:00:11.458Z,99066.62
2023-04-16T13:02:38.736Z,99062.75
2023-04-16T13:05:06.410Z,99061.50
2023-04-16T13:07:34.147Z,99062.53
2023-04-16T13:10:01.368Z,99056.50
2023-04-16T13:12:28.516Z,99058.19
2023-04-16T13:14:56.068Z,99055.66
2023-04-16T13:17:23.202Z,99056.22
2023-04-16T13:19:50.388Z,99047.50
2023-04-16T13:22:17.844Z,99051.00
2023-04-16T13:24:44.956Z,99042.84
2023-04-16T13:27:12.775Z,99034.41
2023-04-16T13:29:40.274Z,99033.97
2023-04-16T13:32:07.501Z,99029.59
2023-04-16T13:34:34.622Z,99036.03
2023-04-16T13:37:01.993Z,99035.53
2023-04-16T13:39:29.100Z,99033.13
2023-04-16T13:41:56.122Z,99020.34
2023-04-16T13:44:23.490Z,99020.06
2023-04-16T13:46:50.726Z,99018.50
2023-04-16T13:49:17.794Z,99020.59
2023-04-16T13:51:45.124Z,99020.22
2023-04-16T13:54:12.114Z,99013.72
2023-04-16T13:56:39.592Z,99026.50
2023-04-16T13:59:07.168Z,99026.50
2023-04-16T14:01:34.744Z,99018.16
2023-04-16T14:04:06.426Z,99023.66
2023-04-16T14:06:37.010Z,99016.19
2023-04-16T14:09:04.517Z,99015.22
2023-04-16T14:11:31.740Z,99019.13
2023-04-16T14:13:58.904Z,99026.72
2023-04-16T14:16:27.396Z,99015.50
2023-04-16T14:18:54.622Z,99014.62
2023-04-16T14:21:21.748Z,99024.38
2023-04-16T14:23:49.725Z,99016.19
2023-04-16T14:26:16.914Z,99017.47
2023-04-16T14:28:44.472Z,99016.59
2023-04-16T14:31:11.960Z,99017.00
2023-04-16T14:33:39.268Z,99029.50
2023-04-16T14:36:06.602Z,99016.66
2023-04-16T14:38:34.035Z,99013.00
2023-04-16T14:41:01.316Z,99015.97
2023-04-16T14:43:28.450Z,99015.78
2023-04-16T14:45:57.127Z,99011.91
2023-04-16T14:48:24.384Z,99009.94
2023-04-16T14:50:51.419Z,99005.47
2023-04-16T14:53:19.803Z,99009.94
2023-04-16T14:55:46.845Z,99005.56
2023-04-16T14:58:13.952Z,99004.41
2023-04-16T15:00:41.533Z,99011.69
2023-04-16T15:03:12.114Z,99011.63
2023-04-16T15:05:39.306Z,99011.06
2023-04-16T15:08:07.249Z,99004.28
2023-04-16T15:10:35.099Z,99010.41
2023-04-16T15:13:02.178Z,99008.53
2023-04-16T15:15:29.674Z,99001.38
2023-04-16T15:17:57.781Z,99001.87
2023-04-16T15:20:24.918Z,98988.81
2023-04-16T15:22:53.883Z,98995.84
2023-04-16T15:25:21.026Z,99000.59
2023-04-16T15:27:48.121Z,99002.91
2023-04-16T15:30:15.801Z,98997.47
2023-04-16T15:32:44.612Z,98996.06
2023-04-16T15:35:13.057Z,99005.25
2023-04-16T15:37:40.911Z,99003.84
2023-04-16T15:40:08.638Z,98995.66
2023-04-16T15:42:35.737Z,99000.16
2023-04-16T15:45:03.154Z,98998.56
2023-04-16T15:47:30.541Z,98998.69
2023-04-16T15:49:57.646Z,98998.69
2023-04-16T15:52:25.021Z,98996.75
2023-04-16T15:54:52.075Z,98998.69
2023-04-16T15:57:19.440Z,98999.66
2023-04-16T16:00:03.185Z,99002.00
2023-04-16T16:02:34.140Z,99003.69
2023-04-16T16:05:01.441Z,99006.25
2023-04-16T16:07:28.590Z,99011.16
2023-04-16T16:09:56.329Z,99009.75
2023-04-16T16:12:23.508Z,99010.25
2023-04-16T16:14:50.945Z,99011.94
2023-04-16T16:17:20.327Z,99005.06
2023-04-16T16:19:47.564Z,99005.69
2023-04-16T16:22:16.026Z,99010.63
2023-04-16T16:24:44.078Z,99005.34
2023-04-16T16:27:11.200Z,99010.34
2023-04-16T16:29:38.319Z,99011.13
2023-04-16T16:32:06.044Z,99015.25
2023-04-16T16:34:33.283Z,99021.78
2023-04-16T16:37:00.589Z,99014.88
2023-04-16T16:39:28.014Z,99015.63
2023-04-16T16:41:55.105Z,99011.50
2023-04-16T16:44:23.077Z,99006.81
2023-04-16T16:46:51.386Z,99009.59
2023-04-16T16:49:18.619Z,99017.06
2023-04-16T16:51:49.023Z,99011.53
2023-04-16T16:54:16.395Z,99013.31
2023-04-16T16:56:43.551Z,99016.66
2023-04-16T16:59:11.008Z,99016.53
2023-04-16T17:01:38.864Z,99016.59
2023-04-16T17:04:06.183Z,99019.50
2023-04-16T17:06:34.181Z,99025.63
2023-04-16T17:09:01.964Z,99023.91
2023-04-16T17:11:29.364Z,99023.69
2023-04-16T17:13:56.768Z,99024.06
2023-04-16T17:16:24.266Z,99020.81
2023-04-16T17:18:51.370Z,99026.13
2023-04-16T17:21:18.538Z,99032.34
2023-04-16T17:23:45.904Z,99033.63
2023-04-16T17:26:12.994Z,99032.16
2023-04-16T17:28:40.088Z,99025.87
2023-04-16T17:31:08.517Z,99030.56
2023-04-16T17:33:35.817Z,99037.59
2023-04-16T17:36:03.032Z,99033.28
2023-04-16T17:38:30.498Z,99039.34
2023-04-16T17:40:58.113Z,99036.69
2023-04-16T17:43:25.378Z,99047.72
2023-04-16T17:45:52.796Z,99048.69
2023-04-16T17:48:19.949Z,99050.91
2023-04-16T17:50:47.161Z,99059.91
2023-04-16T17:53:14.634Z,99056.84
2023-04-16T17:55:50.688Z,99057.25
2023-04-16T17:58:18.154Z,99064.69
2023-04-16T18:00:45.883Z,99069.75
2023-04-16T18:03:14.781Z,99067.00
2023-04-16T18:05:41.998Z,99065.53
2023-04-16T18:08:09.143Z,99064.69
2023-04-16T18:10:38.707Z,99072.84
2023-04-16T18:13:05.770Z,99070.81
2023-04-16T18:15:36.999Z,99076.75
2023-04-16T18:18:05.568Z,99077.53
2023-04-16T18:20:32.844Z,99076.00
2023-04-16T18:23:01.255Z,99072.94
2023-04-16T18:25:34.294Z,99076.63
2023-04-16T18:28:03.893Z,99079.72
2023-04-16T18:30:31.458Z,99082.88
2023-04-16T18:35:28.614Z,99086.59
2023-04-16T18:37:56.093Z,99076.75
2023-04-16T18:40:23.299Z,99081.50
2023-04-16T18:42:50.640Z,99089.56
2023-04-16T18:45:21.730Z,99084.59
2023-04-16T18:47:51.346Z,99095.94
2023-04-16T18:50:18.811Z,99091.28
2023-04-16T18:52:45.916Z,99083.75
2023-04-16T18:55:13.001Z,99088.63
2023-04-16T18:57:40.395Z,99090.00
2023-04-16T19:00:12.498Z,99080.47
2023-04-16T19:02:40.168Z,99084.38
2023-04-16T19:05:09.011Z,99078.13
2023-04-16T19:07:37.059Z,99064.25
2023-04-16T19:10:05.316Z,99075.78
2023-04-16T19:12:32.732Z,99071.13
2023-04-16T19:15:00.427Z,99063.03
2023-04-16T19:17:27.569Z,99055.63
2023-04-16T19:19:54.917Z,99058.38
2023-04-16T19:22:22.080Z,99058.16
2023-04-16T19:24:49.245Z,99050.94
2023-04-16T19:27:16.788Z,99042.88
2023-04-16T19:29:45.535Z,99048.50
2023-04-16T19:32:14.048Z,99052.31
2023-04-16T19:34:41.710Z,99056.41
2023-04-16T19:37:08.816Z,99056.03
2023-04-16T19:39:36.484Z,99063.22
2023-04-16T19:42:04.212Z,99055.16
2023-04-16T19:44:32.353Z,99060.56
2023-04-16T19:46:59.868Z,99053.44
2023-04-16T19:49:34.359Z,99050.59
2023-04-16T19:52:01.752Z,99054.59
2023-04-16T19:54:29.232Z,99047.09
2023-04-16T19:56:57.084Z,99046.06
2023-04-16T19:59:25.045Z,99063.59
2023-04-16T20:01:52.163Z,99057.72
2023-04-16T20:04:19.817Z,99055.16
2023-04-16T20:06:46.995Z,99044.78
2023-04-16T20:09:14.076Z,99048.50
2023-04-16T20:11:41.451Z,99051.44
2023-04-16T20:14:10.937Z,99050.75
2023-04-16T20:16:38.721Z,99046.06
2023-04-16T20:19:08.546Z,99049.19
2023-04-16T20:21:36.182Z,99047.75
2023-04-16T20:24:03.421Z,99042.09
2023-04-16T20:26:34.146Z,99042.13
2023-04-16T20:29:01.351Z,99039.84
2023-04-16T20:31:29.240Z,99045.16
2023-04-16T20:33:56.665Z,99046.69
2023-04-16T20:36:23.743Z,99042.69
2023-04-16T20:38:53.817Z,99047.03
2023-04-16T20:41:22.507Z,99037.50
2023-04-16T20:43:50.317Z,99031.34
2023-04-16T20:46:17.795Z,99031.28
2023-04-16T20:48:45.384Z,99036.81
2023-04-16T20:51:13.051Z,99029.28
2023-04-16T20:53:40.391Z,99038.59
2023-04-16T20:56:09.185Z,99050.25
2023-04-16T20:58:36.337Z,99038.34
2023-04-16T21:01:04.787Z,99034.31
2023-04-16T21:03:32.417Z,99037.66
2023-04-16T21:06:01.833Z,99033.47
2023-04-16T21:08:29.081Z,99036.97
2023-04-16T21:10:56.366Z,99031.59
2023-04-16T21:13:23.489Z,99026.97
2023-04-16T21:15:50.760Z,99026.97
2023-04-16T21:18:18.617Z,99027.91
2023-04-16T21:20:46.584Z,99027.31
2023-04-16T21:23:13.723Z,99028.38
2023-04-16T21:25:41.170Z,99026.13
2023-04-16T21:28:08.278Z,99020.91
2023-04-16T21:30:35.412Z,99027.72
2023-04-16T21:33:03.341Z,99030.72
2023-04-16T21:35:33.603Z,99039.00
2023-04-16T21:38:00.747Z,99038.31
2023-04-16T21:40:28.190Z,99031.09
2023-04-16T21:42:55.445Z,99042.13
2023-04-16T21:45:22.907Z,99029.88
2023-04-16T21:47:50.369Z,99017.41
2023-04-16T21:50:17.674Z,99013.09
2023-04-16T21:52:46.756Z,99024.00
2023-04-16T21:55:14.726Z,99016.06
2023-04-16T21:57:41.885Z,99004.59
2023-04-16T22:00:13.712Z,98999.28
2023-04-16T22:02:42.593Z,99000.06
2023-04-16T22:05:11.379Z,98997.22
2023-04-16T22:07:38.583Z,98989.88
2023-04-16T22:10:06.810Z,99004.25
2023-04-16T22:12:37.759Z,99012.19
2023-04-16T22:15:06.157Z,99014.62
2023-04-16T22:17:34.363Z,99014.81
2023-04-16T22:20:04.890Z,99006.38
2023-04-16T22:22:32.016Z,99002.56
2023-04-16T22:24:59.520Z,99005.41
2023-04-16T22:27:26.632Z,99002.56
2023-04-16T22:29:53.854Z,99005.22
2023-04-16T22:32:21.641Z,99004.38
2023-04-16T22:34:48.816Z,99000.41
2023-04-16T22:37:15.986Z,98999.56
2023-04-16T22:39:43.429Z,99001.44
2023-04-16T22:42:10.561Z,98995.50
2023-04-16T22:44:37.890Z,98993.31
2023-04-16T22:47:05.534Z,98986.91
2023-04-16T22:49:33.168Z,98988.69
2023-04-16T22:52:00.882Z,98988.81
2023-04-16T22:54:29.532Z,98997.84
2023-04-16T22:56:57.571Z,98988.81
2023-04-16T22:59:25.277Z,98988.22
2023-04-16T23:01:52.972Z,98988.81
2023-04-16T23:04:20.421Z,98981.00
2023-04-16T23:06:47.553Z,98984.19
2023-04-16T23:09:14.982Z,98976.09
2023-04-16T23:11:42.087Z,98977.88
2023-04-16T23:14:09.688Z,98976.84
2023-04-16T23:16:37.160Z,98968.72
2023-04-16T23:19:04.229Z,98967.59
2023-04-16T23:21:32.439Z,98960.91
2023-04-16T23:24:00.070Z,98967.31
2023-04-16T23:26:27.230Z,98968.09
2023-04-16T23:28:54.231Z,98964.59
2023-04-16T23:31:21.729Z,98956.41
2023-04-16T23:33:48.846Z,98951.28
2023-04-16T23:36:15.922Z,98958.84
2023-04-16T23:38:43.439Z,98950.94
2023-04-16T23:41:10.750Z,98952.81
2023-04-16T23:43:40.103Z,98954.31
2023-04-16T23:46:07.769Z,98953.44
2023-04-16T23:48:34.960Z,98954.31
2023-04-16T23:51:02.127Z,98945.62
2023-04-16T23:53:29.693Z,98948.44
2023-04-16T23:55:56.809Z,98947.31
2023-04-16T23:58:24.332Z,98941.94
